createdAt,value
2022-10-05T00:02:22.978Z,17.20
2022-10-05T00:04:55.810Z,15.80
2022-10-05T00:07:25.397Z,17.40
2022-10-05T00:09:57.626Z,16.50
2022-10-05T00:12:29.815Z,17.83
2022-10-05T00:15:01.804Z,16.00
2022-10-05T00:17:31.811Z,17.23
2022-10-05T00:20:02.813Z,16.77
2022-10-05T00:22:32.734Z,17.23
2022-10-05T00:25:09.356Z,15.83
2022-10-05T00:27:39.712Z,16.50
2022-10-05T00:30:14.747Z,15.30
2022-10-05T00:32:43.415Z,16.00
2022-10-05T00:35:12.947Z,15.67
2022-10-05T00:37:41.817Z,17.27
2022-10-05T00:40:22.261Z,16.80
2022-10-05T00:43:02.205Z,15.97
2022-10-05T00:45:34.599Z,18.17
2022-10-05T00:48:13.323Z,16.53
2022-10-05T00:51:08.774Z,16.03
2022-10-05T00:53:44.776Z,16.10
2022-10-05T00:56:27.165Z,16.30
2022-10-05T00:59:07.459Z,16.50
2022-10-05T01:01:42.225Z,15.97
2022-10-05T01:04:17.749Z,15.53
2022-10-05T01:07:01.519Z,16.97
2022-10-05T01:09:38.912Z,16.93
2022-10-05T01:12:16.854Z,16.23
2022-10-05T01:14:56.967Z,16.07
2022-10-05T01:17:33.206Z,16.10
2022-10-05T01:20:32.266Z,15.53
2022-10-05T01:23:30.553Z,16.60
2022-10-05T01:26:13.763Z,15.87
2022-10-05T01:28:48.948Z,16.67
2022-10-05T01:31:23.924Z,16.47
2022-10-05T01:33:59.568Z,16.60
2022-10-05T01:36:35.913Z,16.43
2022-10-05T01:39:10.651Z,15.37
2022-10-05T01:41:46.864Z,16.13
2022-10-05T01:44:20.478Z,15.70
2022-10-05T01:46:58.894Z,15.97
2022-10-05T01:49:38.646Z,18.00
2022-10-05T01:52:26.101Z,16.20
2022-10-05T01:55:07.647Z,16.87
2022-10-05T01:57:49.456Z,16.03
2022-10-05T02:00:21.497Z,17.03
2022-10-05T02:02:53.633Z,16.70
2022-10-05T02:05:25.686Z,17.73
2022-10-05T02:07:58.719Z,16.63
2022-10-05T02:13:37.631Z,17.33
2022-10-05T02:16:15.679Z,16.50
2022-10-05T02:18:50.972Z,15.97
2022-10-05T02:21:21.436Z,16.80
2022-10-05T02:23:54.651Z,15.63
2022-10-05T02:26:25.604Z,18.00
2022-10-05T02:28:58.091Z,17.07
2022-10-05T02:31:31.812Z,16.47
2022-10-05T02:34:26.183Z,16.70
2022-10-05T02:37:08.425Z,15.97
2022-10-05T02:39:48.541Z,16.73
2022-10-05T02:42:25.336Z,17.97
2022-10-05T02:45:03.850Z,16.20
2022-10-05T02:47:42.815Z,18.33
2022-10-05T02:50:20.449Z,16.23
2022-10-05T02:53:01.581Z,16.97
2022-10-05T02:55:36.297Z,18.03
2022-10-05T02:58:08.971Z,15.07
2022-10-05T03:00:46.407Z,16.80
2022-10-05T03:03:24.619Z,16.53
2022-10-05T03:05:59.644Z,16.73
2022-10-05T03:08:35.375Z,17.93
2022-10-05T03:11:12.336Z,17.03
2022-10-05T03:13:49.381Z,16.67
2022-10-05T03:16:40.605Z,16.67
2022-10-05T03:19:27.334Z,16.30
2022-10-05T03:22:04.187Z,16.60
2022-10-05T03:24:45.937Z,16.20
2022-10-05T03:27:29.032Z,16.33
2022-10-05T03:30:04.652Z,17.37
2022-10-05T03:32:47.939Z,18.27
2022-10-05T03:35:23.484Z,17.17
2022-10-05T03:38:00.543Z,17.43
2022-10-05T03:40:36.145Z,18.13
2022-10-05T03:43:28.365Z,17.17
2022-10-05T03:46:05.733Z,15.70
2022-10-05T03:48:41.072Z,17.23
2022-10-05T03:51:18.554Z,18.40
2022-10-05T03:53:52.238Z,18.77
2022-10-05T03:56:27.783Z,18.30
2022-10-05T03:59:02.067Z,18.17
2022-10-05T04:01:44.280Z,17.23
2022-10-05T04:04:20.750Z,18.57
2022-10-05T04:06:53.682Z,17.13
2022-10-05T04:09:30.580Z,19.67
2022-10-05T04:12:07.754Z,16.90
2022-10-05T04:14:40.020Z,16.30
2022-10-05T04:17:13.612Z,16.80
2022-10-05T04:19:46.996Z,16.80
2022-10-05T04:22:23.053Z,15.97
2022-10-05T04:24:57.268Z,17.30
2022-10-05T04:27:32.253Z,18.53
2022-10-05T04:30:08.248Z,16.90
2022-10-05T04:32:39.933Z,16.67
2022-10-05T04:35:34.416Z,17.90
2022-10-05T04:38:16.487Z,17.37
2022-10-05T04:40:57.395Z,16.13
2022-10-05T04:43:36.458Z,17.63
2022-10-05T04:46:20.221Z,16.83
2022-10-05T04:49:09.494Z,16.60
2022-10-05T04:51:51.110Z,17.30
2022-10-05T04:54:34.339Z,18.10
2022-10-05T04:57:08.317Z,17.20
2022-10-05T05:00:05.702Z,17.87
2022-10-05T05:02:53.824Z,16.80
2022-10-05T05:05:28.950Z,16.43
2022-10-05T05:08:11.761Z,17.77
2022-10-05T05:10:55.256Z,17.13
2022-10-05T05:14:01.515Z,18.13
2022-10-05T05:16:36.869Z,20.03
2022-10-05T05:19:20.853Z,17.77
2022-10-05T05:21:58.354Z,18.03
2022-10-05T05:24:42.037Z,18.23
2022-10-05T05:27:35.270Z,17.37
2022-10-05T05:30:13.158Z,15.30
2022-10-05T05:32:52.494Z,16.13
2022-10-05T05:35:39.196Z,17.70
2022-10-05T05:38:21.983Z,16.63
2022-10-05T05:40:57.566Z,15.43
2022-10-05T05:43:33.142Z,17.43
2022-10-05T05:46:10.849Z,16.63
2022-10-05T05:48:41.891Z,16.93
2022-10-05T05:51:15.439Z,17.43
2022-10-05T05:53:45.902Z,16.23
2022-10-05T05:56:17.933Z,18.00
2022-10-05T05:58:54.040Z,16.30
2022-10-05T06:01:33.401Z,18.57
2022-10-05T06:04:11.066Z,17.07
2022-10-05T06:06:44.055Z,16.90
2022-10-05T06:09:20.465Z,16.73
2022-10-05T06:11:53.241Z,18.00
2022-10-05T06:14:29.978Z,17.90
2022-10-05T06:17:03.156Z,17.23
2022-10-05T06:19:36.859Z,17.83
2022-10-05T06:22:13.273Z,15.97
2022-10-05T06:24:55.819Z,15.30
2022-10-05T06:27:35.147Z,16.90
2022-10-05T06:30:08.874Z,15.23
2022-10-05T06:32:59.636Z,18.17
2022-10-05T06:35:40.836Z,16.90
2022-10-05T06:38:27.307Z,16.73
2022-10-05T06:41:06.670Z,17.87
2022-10-05T06:43:49.656Z,17.87
2022-10-05T06:46:27.380Z,18.27
2022-10-05T06:49:09.994Z,16.00
2022-10-05T06:51:44.769Z,16.43
2022-10-05T06:54:33.184Z,16.70
2022-10-05T06:57:07.998Z,16.40
2022-10-05T06:59:44.306Z,15.93
2022-10-05T07:02:32.214Z,15.27
2022-10-05T07:05:33.164Z,15.43
2022-10-05T07:08:05.576Z,16.00
2022-10-05T07:10:42.385Z,18.83
2022-10-05T07:13:41.414Z,14.77
2022-10-05T07:16:17.675Z,15.33
2022-10-05T07:19:04.886Z,15.43
2022-10-05T07:21:39.850Z,16.07
2022-10-05T07:24:23.306Z,15.50
2022-10-05T07:26:57.651Z,15.70
2022-10-05T07:29:33.813Z,16.57
2022-10-05T07:32:18.300Z,15.43
2022-10-05T07:34:56.040Z,16.70
2022-10-05T07:37:51.671Z,16.00
2022-10-05T07:40:27.469Z,14.40
2022-10-05T07:43:06.293Z,14.10
2022-10-05T07:45:42.264Z,15.40
2022-10-05T07:48:16.861Z,14.90
2022-10-05T07:50:58.110Z,15.43
2022-10-05T07:53:31.633Z,14.57
2022-10-05T07:56:04.874Z,15.97
2022-10-05T07:58:41.632Z,15.97
2022-10-05T08:01:17.087Z,14.93
2022-10-05T08:03:53.879Z,14.97
2022-10-05T08:06:49.184Z,15.07
2022-10-05T08:09:30.469Z,15.07
2022-10-05T08:12:07.887Z,14.63
2022-10-05T08:14:45.353Z,14.87
2022-10-05T08:17:25.752Z,14.67
2022-10-05T08:20:06.369Z,14.97
2022-10-05T08:22:45.710Z,15.27
2022-10-05T08:25:24.293Z,15.63
2022-10-05T08:28:01.576Z,15.07
2022-10-05T08:30:36.129Z,15.17
2022-10-05T08:33:12.424Z,15.13
2022-10-05T08:35:44.106Z,14.83
2022-10-05T08:38:28.500Z,14.33
2022-10-05T08:41:36.091Z,15.30
2022-10-05T08:47:26.050Z,15.73
2022-10-05T08:53:32.487Z,14.97
2022-10-05T08:56:28.615Z,16.37
2022-10-05T08:59:16.160Z,16.30
2022-10-05T09:02:07.272Z,15.93
2022-10-05T09:04:51.114Z,15.37
2022-10-05T09:07:43.556Z,15.37
2022-10-05T09:11:02.755Z,16.07
2022-10-05T09:14:05.607Z,16.10
2022-10-05T09:16:51.785Z,16.50
2022-10-05T09:19:50.641Z,15.10
2022-10-05T09:22:34.042Z,16.27
2022-10-05T09:25:15.722Z,16.40
2022-10-05T09:27:53.738Z,16.03
2022-10-05T09:30:28.322Z,15.53
2022-10-05T09:33:29.909Z,16.63
2022-10-05T09:36:39.749Z,15.33
2022-10-05T09:39:54.275Z,15.23
2022-10-05T09:42:51.268Z,15.97
2022-10-05T09:45:42.010Z,16.23
2022-10-05T09:52:19.226Z,16.03
2022-10-05T09:55:34.099Z,16.77
2022-10-05T09:58:49.620Z,15.57
2022-10-05T10:01:33.515Z,16.30
2022-10-05T10:04:38.213Z,16.67
2022-10-05T10:07:43.480Z,16.30
2022-10-05T10:10:43.964Z,16.57
2022-10-05T10:13:39.798Z,16.27
2022-10-05T10:16:23.638Z,16.90
2022-10-05T10:19:10.222Z,17.37
2022-10-05T10:22:18.150Z,17.23
2022-10-05T10:25:25.685Z,18.20
2022-10-05T10:28:14.653Z,18.67
2022-10-05T10:31:13.302Z,18.17
2022-10-05T10:34:17.462Z,17.23
2022-10-05T10:37:29.636Z,17.73
2022-10-05T10:40:27.064Z,16.90
2022-10-05T10:43:36.569Z,16.80
2022-10-05T10:46:18.374Z,17.23
2022-10-05T10:48:59.560Z,18.93
2022-10-05T10:51:50.069Z,17.93
2022-10-05T10:54:56.327Z,17.07
2022-10-05T10:57:34.189Z,16.53
2022-10-05T11:00:28.633Z,17.50
2022-10-05T11:03:19.850Z,17.90
2022-10-05T11:06:17.213Z,17.43
2022-10-05T11:09:18.513Z,18.87
2022-10-05T11:12:21.241Z,18.33
2022-10-05T11:15:13.251Z,16.70
2022-10-05T11:18:02.104Z,18.80
2022-10-05T11:21:09.835Z,17.53
2022-10-05T11:24:07.552Z,17.50
2022-10-05T11:27:02.654Z,17.63
2022-10-05T11:29:55.319Z,17.20
2022-10-05T11:33:03.952Z,17.47
2022-10-05T11:35:51.435Z,17.03
2022-10-05T11:38:46.746Z,17.47
2022-10-05T11:41:48.522Z,17.50
2022-10-05T11:44:47.792Z,16.60
2022-10-05T11:50:20.760Z,16.80
2022-10-05T11:52:55.812Z,17.60
2022-10-05T11:55:28.404Z,17.43
2022-10-05T11:58:01.771Z,17.43
2022-10-05T12:00:35.814Z,18.87
2022-10-05T12:03:28.850Z,16.03
2022-10-05T12:06:13.791Z,16.47
2022-10-05T12:08:53.276Z,19.03
2022-10-05T12:11:40.771Z,17.33
2022-10-05T12:14:25.310Z,17.27
2022-10-05T12:17:00.299Z,16.33
2022-10-05T12:19:39.002Z,19.80
2022-10-05T12:22:17.214Z,17.57
2022-10-05T12:25:04.432Z,19.17
2022-10-05T12:27:40.725Z,18.80
2022-10-05T12:30:17.145Z,18.33
2022-10-05T12:33:00.922Z,18.00
2022-10-05T12:35:48.042Z,18.40
2022-10-05T12:38:34.419Z,18.23
2022-10-05T12:41:13.353Z,17.83
2022-10-05T12:44:00.598Z,18.37
2022-10-05T12:46:47.084Z,18.00
2022-10-05T12:49:48.414Z,19.20
2022-10-05T12:52:34.441Z,18.07
2022-10-05T12:55:12.605Z,17.77
2022-10-05T12:57:52.086Z,18.33
2022-10-05T13:03:25.375Z,17.97
2022-10-05T13:06:08.855Z,18.77
2022-10-05T13:08:46.719Z,18.03
2022-10-05T13:11:25.466Z,17.37
2022-10-05T13:14:03.943Z,18.27
2022-10-05T13:16:40.080Z,17.80
2022-10-05T13:19:30.297Z,16.93
2022-10-05T13:22:27.015Z,16.77
2022-10-05T13:25:17.973Z,17.40
2022-10-05T13:28:03.650Z,18.97
2022-10-05T13:30:38.710Z,17.50
2022-10-05T13:33:18.299Z,18.30
2022-10-05T13:35:55.179Z,18.13
2022-10-05T13:38:36.442Z,18.47
2022-10-05T13:41:12.871Z,17.33
2022-10-05T13:43:53.951Z,18.27
2022-10-05T13:46:32.251Z,17.93
2022-10-05T13:49:12.902Z,17.87
2022-10-05T13:51:46.892Z,18.40
2022-10-05T13:54:20.353Z,17.57
2022-10-05T13:56:55.624Z,17.70
2022-10-05T13:59:31.693Z,18.67
2022-10-05T14:02:07.464Z,18.63
2022-10-05T14:04:46.938Z,18.37
2022-10-05T14:07:26.611Z,18.00
2022-10-05T14:09:55.413Z,18.30
2022-10-05T14:12:25.126Z,17.73
2022-10-05T14:14:57.585Z,18.07
2022-10-05T14:17:41.738Z,18.50
2022-10-05T14:20:35.247Z,17.73
2022-10-05T14:23:17.324Z,17.83
2022-10-05T14:25:54.029Z,17.20
2022-10-05T14:28:28.634Z,16.73
2022-10-05T14:31:00.766Z,18.57
2022-10-05T14:33:32.054Z,17.53
2022-10-05T14:36:01.572Z,17.27
2022-10-05T14:38:36.918Z,17.77
2022-10-05T14:41:18.189Z,17.83
2022-10-05T14:43:55.999Z,18.60
2022-10-05T14:46:29.553Z,17.73
2022-10-05T14:49:17.133Z,17.83
2022-10-05T14:51:48.395Z,19.07
2022-10-05T14:54:36.696Z,19.27
2022-10-05T14:57:10.092Z,18.40
2022-10-05T15:00:01.546Z,19.60
2022-10-05T15:03:00.685Z,19.47
2022-10-05T15:05:34.446Z,21.23
2022-10-05T15:08:16.227Z,18.33
2022-10-05T15:10:51.030Z,19.27
2022-10-05T15:13:22.970Z,16.67
2022-10-05T15:16:57.790Z,15.93
2022-10-05T15:23:11.609Z,17.73
2022-10-05T15:26:34.178Z,17.80
2022-10-05T15:29:10.132Z,16.93
2022-10-05T15:31:46.225Z,16.83
2022-10-05T15:34:21.745Z,18.40
2022-10-05T15:36:57.753Z,17.47
2022-10-05T15:39:34.850Z,17.83
2022-10-05T15:42:10.495Z,17.43
2022-10-05T15:45:06.356Z,17.97
2022-10-05T15:47:47.147Z,16.73
2022-10-05T15:50:24.178Z,17.27
2022-10-05T15:52:57.697Z,18.40
2022-10-05T15:55:40.733Z,17.30
2022-10-05T15:58:26.497Z,17.97
2022-10-05T16:01:04.032Z,19.80
2022-10-05T16:03:45.790Z,17.57
2022-10-05T16:06:44.850Z,15.93
2022-10-05T16:09:29.098Z,15.40
2022-10-05T16:12:11.201Z,17.97
2022-10-05T16:15:26.627Z,17.03
2022-10-05T16:18:22.189Z,17.17
2022-10-05T16:20:59.958Z,17.10
2022-10-05T16:23:40.871Z,17.10
2022-10-05T16:26:22.355Z,16.17
2022-10-05T16:28:58.863Z,16.53
2022-10-05T16:31:38.703Z,16.90
2022-10-05T16:34:25.108Z,16.67
2022-10-05T16:37:03.073Z,16.77
2022-10-05T16:39:55.108Z,16.47
2022-10-05T16:42:50.835Z,15.40
2022-10-05T16:45:45.151Z,14.90
2022-10-05T16:48:22.751Z,14.60
2022-10-05T16:51:14.832Z,15.43
2022-10-05T16:56:40.816Z,16.80
2022-10-05T17:00:14.917Z,15.73
2022-10-05T17:03:14.959Z,16.00
2022-10-05T17:06:34.644Z,14.67
2022-10-05T17:09:48.869Z,14.80
2022-10-05T17:15:51.135Z,14.73
2022-10-05T17:19:11.082Z,17.10
2022-10-05T17:21:50.787Z,14.70
2022-10-05T17:24:48.694Z,14.83
2022-10-05T17:30:40.081Z,14.60
2022-10-05T17:34:28.273Z,14.53
2022-10-05T17:37:40.394Z,16.37
2022-10-05T17:41:29.355Z,14.37
2022-10-05T17:44:35.893Z,14.77
2022-10-05T17:47:14.125Z,15.37
2022-10-05T17:50:24.959Z,15.17
2022-10-05T17:53:42.340Z,14.70
2022-10-05T17:56:25.773Z,17.35
2022-10-05T17:59:10.938Z,16.13
2022-10-05T18:01:44.056Z,15.07
2022-10-05T18:04:49.831Z,15.00
2022-10-05T18:11:15.851Z,14.13
2022-10-05T18:17:33.659Z,14.83
2022-10-05T18:20:41.400Z,15.00
2022-10-05T18:27:02.013Z,14.30
2022-10-05T18:34:20.271Z,15.23
2022-10-05T18:37:40.292Z,14.73
2022-10-05T18:50:34.747Z,16.00
2022-10-05T18:56:40.484Z,14.70
2022-10-05T18:59:46.622Z,14.63
2022-10-05T19:02:29.933Z,15.17
2022-10-05T19:05:46.306Z,16.87
2022-10-05T19:08:30.124Z,16.23
2022-10-05T19:11:24.566Z,16.93
2022-10-05T19:17:37.099Z,15.47
2022-10-05T19:20:28.520Z,16.40
2022-10-05T19:23:30.430Z,16.37
2022-10-05T19:26:14.674Z,14.83
2022-10-05T19:28:57.906Z,14.73
2022-10-05T19:31:40.322Z,15.40
2022-10-05T19:34:22.764Z,14.93
2022-10-05T19:39:56.299Z,14.60
2022-10-05T19:48:37.459Z,14.90
2022-10-05T19:51:15.986Z,14.37
2022-10-05T19:53:57.467Z,15.33
2022-10-05T19:56:40.583Z,16.73
2022-10-05T19:59:15.598Z,17.03
2022-10-05T20:01:52.888Z,17.20
2022-10-05T20:07:40.476Z,16.07
2022-10-05T20:10:45.299Z,15.27
2022-10-05T20:16:51.065Z,14.27
2022-10-05T20:19:54.411Z,15.47
2022-10-05T20:22:35.977Z,14.13
2022-10-05T20:34:56.763Z,14.27
2022-10-05T20:37:26.436Z,14.07
2022-10-05T20:42:54.238Z,11.87
2022-10-05T20:45:26.537Z,11.57
2022-10-05T20:48:16.102Z,11.80
2022-10-05T20:51:31.064Z,11.70
2022-10-05T20:54:02.606Z,11.97
2022-10-05T20:56:34.591Z,11.57
2022-10-05T20:59:10.304Z,11.87
2022-10-05T21:01:39.802Z,12.07
2022-10-05T21:07:22.274Z,11.30
2022-10-05T21:18:47.005Z,11.10
2022-10-05T21:21:17.969Z,11.87
2022-10-05T21:23:48.719Z,10.53
2022-10-05T21:26:25.781Z,10.97
2022-10-05T21:28:55.795Z,11.60
2022-10-05T21:48:23.860Z,11.90
2022-10-05T21:50:57.386Z,11.60
2022-10-05T21:59:07.071Z,11.33
2022-10-05T22:01:50.129Z,10.50
2022-10-05T22:04:21.648Z,10.73
2022-10-05T22:06:51.848Z,10.83
2022-10-05T22:09:20.614Z,10.63
2022-10-05T22:11:51.264Z,12.13
2022-10-05T22:14:20.348Z,12.20
2022-10-05T22:16:49.325Z,11.77
2022-10-05T22:19:21.042Z,11.23
2022-10-05T22:21:56.264Z,10.97
2022-10-05T22:24:25.005Z,11.50
2022-10-05T22:26:53.807Z,10.77
2022-10-05T22:29:23.624Z,11.17
2022-10-05T22:31:53.906Z,10.83
2022-10-05T22:34:23.066Z,10.30
2022-10-05T22:36:53.848Z,10.27
2022-10-05T22:39:23.585Z,10.27
2022-10-05T22:41:52.781Z,10.37
2022-10-05T22:44:23.502Z,10.77
2022-10-05T22:46:56.014Z,11.20
2022-10-05T22:49:24.866Z,10.33
2022-10-05T22:51:55.928Z,11.33
2022-10-05T22:55:02.922Z,9.77
2022-10-05T22:57:49.512Z,10.20
2022-10-05T23:00:40.406Z,12.33
2022-10-05T23:03:50.710Z,10.07
2022-10-05T23:06:40.103Z,10.27
2022-10-05T23:09:10.533Z,9.80
2022-10-05T23:11:39.878Z,11.10
2022-10-05T23:14:11.641Z,10.50
2022-10-05T23:16:40.372Z,11.47
2022-10-05T23:19:09.103Z,11.10
2022-10-05T23:21:38.821Z,10.30
2022-10-05T23:24:11.189Z,11.27
2022-10-05T23:26:40.998Z,9.67
2022-10-05T23:29:12.255Z,10.57
2022-10-05T23:31:42.053Z,10.30
2022-10-05T23:34:11.871Z,9.87
2022-10-05T23:36:41.900Z,10.77
2022-10-05T23:39:17.453Z,10.27
2022-10-05T23:41:48.357Z,10.50
2022-10-05T23:44:18.281Z,10.47
2022-10-05T23:46:47.090Z,10.20
2022-10-05T23:49:16.363Z,10.37
2022-10-05T23:51:49.349Z,10.57
2022-10-05T23:54:55.425Z,10.70
2022-10-05T23:57:44.571Z,10.43
